sensor_id;sensor_type;location;lat;lon;timestamp;P1;durP1;ratioP1;P2;durP2;ratioP2
7406;SDS011;3745;56.964;24.128;2023-07-31T00:00:24;10.50;;;9.40;;
7406;SDS011;3745;56.964;24.128;2023-07-31T00:02:51;9.88;;;8.88;;
7406;SDS011;3745;56.964;24.128;2023-07-31T00:05:17;10.38;;;9.38;;
7406;SDS011;3745;56.964;24.128;2023-07-31T00:07:43;10.77;;;9.60;;
7406;SDS011;3745;56.964;24.128;2023-07-31T00:10:08;10.85;;;9.82;;
7406;SDS011;3745;56.964;24.128;2023-07-31T00:12:34;10.90;;;9.77;;
7406;SDS011;3745;56.964;24.128;2023-07-31T00:15:00;11.18;;;9.40;;
7406;SDS011;3745;56.964;24.128;2023-07-31T00:17:26;11.95;;;9.70;;
7406;SDS011;3745;56.964;24.128;2023-07-31T00:19:51;11.80;;;9.93;;
7406;SDS011;3745;56.964;24.128;2023-07-31T00:22:17;12.25;;;9.65;;
7406;SDS011;3745;56.964;24.128;2023-07-31T00:24:43;11.75;;;9.82;;
7406;SDS011;3745;56.964;24.128;2023-07-31T00:27:08;10.00;;;9.00;;
7406;SDS011;3745;56.964;24.128;2023-07-31T00:29:34;11.55;;;9.82;;
7406;SDS011;3745;56.964;24.128;2023-07-31T00:31:59;10.18;;;9.18;;
7406;SDS011;3745;56.964;24.128;2023-07-31T00:34:25;9.70;;;8.63;;
7406;SDS011;3745;56.964;24.128;2023-07-31T00:36:51;9.98;;;8.98;;
7406;SDS011;3745;56.964;24.128;2023-07-31T00:39:16;9.98;;;9.00;;
7406;SDS011;3745;56.964;24.128;2023-07-31T00:41:42;10.77;;;9.63;;
7406;SDS011;3745;56.964;24.128;2023-07-31T00:44:08;11.85;;;9.65;;
7406;SDS011;3745;56.964;24.128;2023-07-31T00:46:33;9.82;;;8.90;;
7406;SDS011;3745;56.964;24.128;2023-07-31T00:48:59;10.98;;;9.23;;
7406;SDS011;3745;56.964;24.128;2023-07-31T00:51:24;10.80;;;8.52;;
7406;SDS011;3745;56.964;24.128;2023-07-31T00:53:50;10.43;;;8.73;;
7406;SDS011;3745;56.964;24.128;2023-07-31T00:56:19;9.18;;;8.27;;
7406;SDS011;3745;56.964;24.128;2023-07-31T00:58:45;9.30;;;8.10;;
7406;SDS011;3745;56.964;24.128;2023-07-31T01:01:10;8.77;;;7.97;;
7406;SDS011;3745;56.964;24.128;2023-07-31T01:03:36;10.27;;;8.30;;
7406;SDS011;3745;56.964;24.128;2023-07-31T01:06:05;8.48;;;7.72;;
7406;SDS011;3745;56.964;24.128;2023-07-31T01:11:49;9.55;;;8.40;;
7406;SDS011;3745;56.964;24.128;2023-07-31T01:14:18;9.93;;;8.40;;
7406;SDS011;3745;56.964;24.128;2023-07-31T01:16:43;10.05;;;9.07;;
7406;SDS011;3745;56.964;24.128;2023-07-31T01:19:09;11.10;;;9.07;;
7406;SDS011;3745;56.964;24.128;2023-07-31T01:27:12;8.75;;;7.95;;
7406;SDS011;3745;56.964;24.128;2023-07-31T01:32:35;9.52;;;8.63;;
7406;SDS011;3745;56.964;24.128;2023-07-31T01:35:05;10.57;;;8.75;;
7406;SDS011;3745;56.964;24.128;2023-07-31T01:37:33;9.88;;;8.88;;
7406;SDS011;3745;56.964;24.128;2023-07-31T01:39:58;11.82;;;8.93;;
7406;SDS011;3745;56.964;24.128;2023-07-31T01:42:24;9.93;;;8.93;;
7406;SDS011;3745;56.964;24.128;2023-07-31T01:44:49;12.73;;;9.38;;
7406;SDS011;3745;56.964;24.128;2023-07-31T01:47:15;12.10;;;9.13;;
7406;SDS011;3745;56.964;24.128;2023-07-31T01:49:41;13.27;;;10.30;;
7406;SDS011;3745;56.964;24.128;2023-07-31T01:52:06;10.32;;;9.27;;
7406;SDS011;3745;56.964;24.128;2023-07-31T01:54:32;10.43;;;9.35;;
7406;SDS011;3745;56.964;24.128;2023-07-31T01:56:58;10.45;;;9.48;;
7406;SDS011;3745;56.964;24.128;2023-07-31T01:59:24;12.18;;;10.73;;
7406;SDS011;3745;56.964;24.128;2023-07-31T02:01:49;11.88;;;9.68;;
7406;SDS011;3745;56.964;24.128;2023-07-31T02:04:15;11.45;;;10.25;;
7406;SDS011;3745;56.964;24.128;2023-07-31T02:06:41;11.80;;;10.60;;
7406;SDS011;3745;56.964;24.128;2023-07-31T02:09:06;13.73;;;10.77;;
7406;SDS011;3745;56.964;24.128;2023-07-31T02:11:32;14.73;;;10.88;;
7406;SDS011;3745;56.964;24.128;2023-07-31T02:13:57;11.10;;;9.93;;
7406;SDS011;3745;56.964;24.128;2023-07-31T02:16:23;15.18;;;10.65;;
7406;SDS011;3745;56.964;24.128;2023-07-31T02:18:48;13.75;;;10.73;;
7406;SDS011;3745;56.964;24.128;2023-07-31T02:21:14;12.77;;;10.43;;
7406;SDS011;3745;56.964;24.128;2023-07-31T02:23:39;11.30;;;10.20;;
7406;SDS011;3745;56.964;24.128;2023-07-31T02:26:05;11.60;;;10.15;;
7406;SDS011;3745;56.964;24.128;2023-07-31T02:28:30;12.27;;;11.00;;
7406;SDS011;3745;56.964;24.128;2023-07-31T02:30:56;10.77;;;9.68;;
7406;SDS011;3745;56.964;24.128;2023-07-31T02:33:22;11.50;;;10.30;;
7406;SDS011;3745;56.964;24.128;2023-07-31T02:35:47;10.52;;;9.45;;
7406;SDS011;3745;56.964;24.128;2023-07-31T02:38:13;10.45;;;9.40;;
7406;SDS011;3745;56.964;24.128;2023-07-31T02:40:39;10.40;;;9.10;;
7406;SDS011;3745;56.964;24.128;2023-07-31T02:43:06;11.02;;;9.68;;
7406;SDS011;3745;56.964;24.128;2023-07-31T02:45:32;11.70;;;9.23;;
7406;SDS011;3745;56.964;24.128;2023-07-31T02:47:58;10.07;;;9.18;;
7406;SDS011;3745;56.964;24.128;2023-07-31T02:50:23;12.82;;;9.73;;
7406;SDS011;3745;56.964;24.128;2023-07-31T02:52:49;10.10;;;8.60;;
7406;SDS011;3745;56.964;24.128;2023-07-31T02:55:14;10.57;;;9.55;;
7406;SDS011;3745;56.964;24.128;2023-07-31T02:57:40;18.13;;;9.45;;
7406;SDS011;3745;56.964;24.128;2023-07-31T03:00:06;13.95;;;9.50;;
7406;SDS011;3745;56.964;24.128;2023-07-31T03:02:32;12.20;;;9.23;;
7406;SDS011;3745;56.964;24.128;2023-07-31T03:04:57;9.50;;;8.50;;
7406;SDS011;3745;56.964;24.128;2023-07-31T03:07:23;13.20;;;8.57;;
7406;SDS011;3745;56.964;24.128;2023-07-31T03:09:49;9.35;;;8.45;;
7406;SDS011;3745;56.964;24.128;2023-07-31T03:12:14;10.20;;;9.15;;
7406;SDS011;3745;56.964;24.128;2023-07-31T03:14:40;14.00;;;8.95;;
7406;SDS011;3745;56.964;24.128;2023-07-31T03:17:06;10.10;;;9.07;;
7406;SDS011;3745;56.964;24.128;2023-07-31T03:19:31;10.00;;;8.80;;
7406;SDS011;3745;56.964;24.128;2023-07-31T03:21:57;9.77;;;8.77;;
7406;SDS011;3745;56.964;24.128;2023-07-31T03:24:24;11.38;;;9.32;;
7406;SDS011;3745;56.964;24.128;2023-07-31T03:26:49;11.55;;;9.30;;
7406;SDS011;3745;56.964;24.128;2023-07-31T03:29:15;11.05;;;9.25;;
7406;SDS011;3745;56.964;24.128;2023-07-31T03:31:40;10.65;;;9.38;;
7406;SDS011;3745;56.964;24.128;2023-07-31T03:34:06;13.38;;;10.18;;
7406;SDS011;3745;56.964;24.128;2023-07-31T03:36:32;13.13;;;9.68;;
7406;SDS011;3745;56.964;24.128;2023-07-31T03:38:57;9.98;;;8.95;;
7406;SDS011;3745;56.964;24.128;2023-07-31T03:41:23;11.63;;;8.95;;
7406;SDS011;3745;56.964;24.128;2023-07-31T03:43:49;11.52;;;9.20;;
7406;SDS011;3745;56.964;24.128;2023-07-31T03:46:21;10.85;;;9.75;;
7406;SDS011;3745;56.964;24.128;2023-07-31T03:48:47;10.30;;;9.27;;
7406;SDS011;3745;56.964;24.128;2023-07-31T03:51:13;10.32;;;9.10;;
7406;SDS011;3745;56.964;24.128;2023-07-31T03:53:38;10.18;;;9.05;;
7406;SDS011;3745;56.964;24.128;2023-07-31T03:56:04;11.02;;;8.68;;
7406;SDS011;3745;56.964;24.128;2023-07-31T03:58:29;13.02;;;9.00;;
7406;SDS011;3745;56.964;24.128;2023-07-31T04:00:55;13.07;;;10.38;;
7406;SDS011;3745;56.964;24.128;2023-07-31T04:03:20;16.08;;;9.68;;
7406;SDS011;3745;56.964;24.128;2023-07-31T04:05:46;19.45;;;9.73;;
7406;SDS011;3745;56.964;24.128;2023-07-31T04:08:11;12.27;;;10.48;;
7406;SDS011;3745;56.964;24.128;2023-07-31T04:10:37;17.38;;;10.98;;
7406;SDS011;3745;56.964;24.128;2023-07-31T04:13:02;15.55;;;10.95;;
7406;SDS011;3745;56.964;24.128;2023-07-31T04:15:28;15.55;;;10.40;;
7406;SDS011;3745;56.964;24.128;2023-07-31T04:17:54;13.95;;;10.82;;
7406;SDS011;3745;56.964;24.128;2023-07-31T04:20:19;22.67;;;11.32;;
7406;SDS011;3745;56.964;24.128;2023-07-31T04:22:45;15.07;;;11.10;;
7406;SDS011;3745;56.964;24.128;2023-07-31T04:25:10;17.65;;;11.88;;
7406;SDS011;3745;56.964;24.128;2023-07-31T04:27:36;23.10;;;11.73;;
7406;SDS011;3745;56.964;24.128;2023-07-31T04:30:01;23.33;;;13.00;;
7406;SDS011;3745;56.964;24.128;2023-07-31T04:32:28;20.30;;;12.38;;
7406;SDS011;3745;56.964;24.128;2023-07-31T04:34:54;23.02;;;13.73;;
7406;SDS011;3745;56.964;24.128;2023-07-31T04:37:20;20.08;;;11.90;;
7406;SDS011;3745;56.964;24.128;2023-07-31T04:39:46;24.15;;;13.40;;
7406;SDS011;3745;56.964;24.128;2023-07-31T04:42:12;24.73;;;12.95;;
7406;SDS011;3745;56.964;24.128;2023-07-31T04:44:37;20.95;;;13.07;;
7406;SDS011;3745;56.964;24.128;2023-07-31T04:47:03;21.23;;;12.77;;
7406;SDS011;3745;56.964;24.128;2023-07-31T04:49:28;22.95;;;12.23;;
7406;SDS011;3745;56.964;24.128;2023-07-31T04:51:54;25.42;;;13.73;;
7406;SDS011;3745;56.964;24.128;2023-07-31T04:54:20;24.02;;;13.95;;
7406;SDS011;3745;56.964;24.128;2023-07-31T04:56:45;20.35;;;13.05;;
7406;SDS011;3745;56.964;24.128;2023-07-31T04:59:11;22.85;;;13.85;;
7406;SDS011;3745;56.964;24.128;2023-07-31T05:01:36;20.63;;;13.48;;
7406;SDS011;3745;56.964;24.128;2023-07-31T05:04:02;23.70;;;13.02;;
7406;SDS011;3745;56.964;24.128;2023-07-31T05:06:27;23.45;;;13.63;;
7406;SDS011;3745;56.964;24.128;2023-07-31T05:08:53;19.95;;;12.35;;
7406;SDS011;3745;56.964;24.128;2023-07-31T05:11:18;24.80;;;12.95;;
7406;SDS011;3745;56.964;24.128;2023-07-31T05:13:44;18.98;;;12.05;;
7406;SDS011;3745;56.964;24.128;2023-07-31T05:16:10;23.60;;;13.57;;
7406;SDS011;3745;56.964;24.128;2023-07-31T05:18:35;21.92;;;12.35;;
7406;SDS011;3745;56.964;24.128;2023-07-31T05:21:01;23.90;;;12.73;;
7406;SDS011;3745;56.964;24.128;2023-07-31T05:23:27;20.13;;;12.40;;
7406;SDS011;3745;56.964;24.128;2023-07-31T05:25:52;22.13;;;12.15;;
7406;SDS011;3745;56.964;24.128;2023-07-31T05:28:18;25.75;;;11.98;;
7406;SDS011;3745;56.964;24.128;2023-07-31T05:30:44;22.75;;;12.10;;
7406;SDS011;3745;56.964;24.128;2023-07-31T05:33:09;23.45;;;13.05;;
7406;SDS011;3745;56.964;24.128;2023-07-31T05:35:35;18.33;;;11.50;;
7406;SDS011;3745;56.964;24.128;2023-07-31T05:38:00;19.65;;;11.05;;
7406;SDS011;3745;56.964;24.128;2023-07-31T05:40:26;25.02;;;12.68;;
7406;SDS011;3745;56.964;24.128;2023-07-31T05:42:52;20.20;;;11.35;;
7406;SDS011;3745;56.964;24.128;2023-07-31T05:45:17;18.98;;;11.65;;
7406;SDS011;3745;56.964;24.128;2023-07-31T05:47:43;15.27;;;10.85;;
7406;SDS011;3745;56.964;24.128;2023-07-31T05:50:09;15.52;;;11.00;;
7406;SDS011;3745;56.964;24.128;2023-07-31T05:52:34;14.55;;;10.55;;
7406;SDS011;3745;56.964;24.128;2023-07-31T05:55:00;16.63;;;10.98;;
7406;SDS011;3745;56.964;24.128;2023-07-31T05:57:26;18.00;;;11.13;;
7406;SDS011;3745;56.964;24.128;2023-07-31T05:59:52;13.82;;;10.10;;
7406;SDS011;3745;56.964;24.128;2023-07-31T06:02:18;15.40;;;10.25;;
7406;SDS011;3745;56.964;24.128;2023-07-31T06:04:44;16.90;;;10.18;;
7406;SDS011;3745;56.964;24.128;2023-07-31T06:07:09;15.70;;;10.27;;
7406;SDS011;3745;56.964;24.128;2023-07-31T06:09:35;12.77;;;9.07;;
7406;SDS011;3745;56.964;24.128;2023-07-31T06:12:01;12.20;;;9.68;;
7406;SDS011;3745;56.964;24.128;2023-07-31T06:14:27;12.80;;;9.98;;
7406;SDS011;3745;56.964;24.128;2023-07-31T06:16:53;9.95;;;8.40;;
7406;SDS011;3745;56.964;24.128;2023-07-31T06:19:18;12.38;;;8.88;;
7406;SDS011;3745;56.964;24.128;2023-07-31T06:21:45;15.38;;;9.30;;
7406;SDS011;3745;56.964;24.128;2023-07-31T06:24:11;11.27;;;8.63;;
7406;SDS011;3745;56.964;24.128;2023-07-31T06:26:37;8.93;;;8.05;;
7406;SDS011;3745;56.964;24.128;2023-07-31T06:29:02;9.10;;;8.20;;
7406;SDS011;3745;56.964;24.128;2023-07-31T06:31:28;12.48;;;7.63;;
7406;SDS011;3745;56.964;24.128;2023-07-31T06:33:54;7.82;;;7.03;;
7406;SDS011;3745;56.964;24.128;2023-07-31T06:36:19;8.75;;;7.30;;
7406;SDS011;3745;56.964;24.128;2023-07-31T06:38:45;11.50;;;7.88;;
7406;SDS011;3745;56.964;24.128;2023-07-31T06:41:10;9.85;;;6.82;;
7406;SDS011;3745;56.964;24.128;2023-07-31T06:43:36;7.00;;;6.32;;
7406;SDS011;3745;56.964;24.128;2023-07-31T06:46:05;11.45;;;7.22;;
7406;SDS011;3745;56.964;24.128;2023-07-31T06:48:32;8.43;;;6.85;;
7406;SDS011;3745;56.964;24.128;2023-07-31T06:50:58;7.70;;;6.85;;
7406;SDS011;3745;56.964;24.128;2023-07-31T06:53:23;6.90;;;5.97;;
7406;SDS011;3745;56.964;24.128;2023-07-31T06:55:49;9.82;;;7.45;;
7406;SDS011;3745;56.964;24.128;2023-07-31T06:58:17;8.73;;;6.97;;
7406;SDS011;3745;56.964;24.128;2023-07-31T07:00:42;9.52;;;6.93;;
7406;SDS011;3745;56.964;24.128;2023-07-31T07:03:08;12.45;;;7.70;;
7406;SDS011;3745;56.964;24.128;2023-07-31T07:05:34;8.60;;;7.30;;
7406;SDS011;3745;56.964;24.128;2023-07-31T07:08:00;11.63;;;9.00;;
7406;SDS011;3745;56.964;24.128;2023-07-31T07:10:25;13.88;;;7.90;;
7406;SDS011;3745;56.964;24.128;2023-07-31T07:12:51;11.80;;;8.27;;
7406;SDS011;3745;56.964;24.128;2023-07-31T07:15:16;10.73;;;8.38;;
7406;SDS011;3745;56.964;24.128;2023-07-31T07:17:42;14.55;;;10.18;;
7406;SDS011;3745;56.964;24.128;2023-07-31T07:20:08;13.00;;;8.73;;
7406;SDS011;3745;56.964;24.128;2023-07-31T07:22:34;11.90;;;9.25;;
7406;SDS011;3745;56.964;24.128;2023-07-31T07:25:00;14.00;;;8.77;;
7406;SDS011;3745;56.964;24.128;2023-07-31T07:27:25;11.48;;;9.15;;
7406;SDS011;3745;56.964;24.128;2023-07-31T07:29:51;14.13;;;8.48;;
7406;SDS011;3745;56.964;24.128;2023-07-31T07:32:20;10.02;;;7.78;;
7406;SDS011;3745;56.964;24.128;2023-07-31T07:34:47;12.20;;;8.30;;
7406;SDS011;3745;56.964;24.128;2023-07-31T07:37:13;13.30;;;8.70;;
7406;SDS011;3745;56.964;24.128;2023-07-31T07:39:38;9.43;;;8.52;;
7406;SDS011;3745;56.964;24.128;2023-07-31T07:42:04;9.85;;;8.60;;
7406;SDS011;3745;56.964;24.128;2023-07-31T07:44:30;8.90;;;7.93;;
7406;SDS011;3745;56.964;24.128;2023-07-31T07:46:55;9.57;;;7.45;;
7406;SDS011;3745;56.964;24.128;2023-07-31T07:49:21;11.80;;;7.07;;
7406;SDS011;3745;56.964;24.128;2023-07-31T07:51:48;9.18;;;6.88;;
7406;SDS011;3745;56.964;24.128;2023-07-31T07:54:13;7.55;;;6.10;;
7406;SDS011;3745;56.964;24.128;2023-07-31T07:56:39;7.07;;;5.78;;
7406;SDS011;3745;56.964;24.128;2023-07-31T07:59:05;5.72;;;5.30;;
7406;SDS011;3745;56.964;24.128;2023-07-31T08:01:30;7.32;;;5.38;;
7406;SDS011;3745;56.964;24.128;2023-07-31T08:03:56;8.77;;;5.80;;
7406;SDS011;3745;56.964;24.128;2023-07-31T08:06:21;5.45;;;5.05;;
7406;SDS011;3745;56.964;24.128;2023-07-31T08:08:47;5.50;;;5.10;;
7406;SDS011;3745;56.964;24.128;2023-07-31T08:11:13;8.25;;;5.60;;
7406;SDS011;3745;56.964;24.128;2023-07-31T08:13:39;8.63;;;5.00;;
7406;SDS011;3745;56.964;24.128;2023-07-31T08:16:04;4.93;;;4.53;;
7406;SDS011;3745;56.964;24.128;2023-07-31T08:18:32;5.38;;;4.88;;
7406;SDS011;3745;56.964;24.128;2023-07-31T08:20:58;8.00;;;4.40;;
7406;SDS011;3745;56.964;24.128;2023-07-31T08:23:24;7.55;;;4.75;;
7406;SDS011;3745;56.964;24.128;2023-07-31T08:25:49;4.28;;;3.97;;
7406;SDS011;3745;56.964;24.128;2023-07-31T08:28:15;6.88;;;4.28;;
7406;SDS011;3745;56.964;24.128;2023-07-31T08:30:41;5.00;;;4.60;;
7406;SDS011;3745;56.964;24.128;2023-07-31T08:33:07;5.45;;;4.57;;
7406;SDS011;3745;56.964;24.128;2023-07-31T08:35:33;4.75;;;4.45;;
7406;SDS011;3745;56.964;24.128;2023-07-31T08:37:58;5.35;;;4.88;;
7406;SDS011;3745;56.964;24.128;2023-07-31T08:40:24;4.53;;;4.13;;
7406;SDS011;3745;56.964;24.128;2023-07-31T08:42:53;4.90;;;4.50;;
7406;SDS011;3745;56.964;24.128;2023-07-31T08:45:22;4.88;;;4.45;;
7406;SDS011;3745;56.964;24.128;2023-07-31T08:47:48;4.68;;;4.25;;
7406;SDS011;3745;56.964;24.128;2023-07-31T08:50:17;5.47;;;4.20;;
7406;SDS011;3745;56.964;24.128;2023-07-31T08:52:44;6.05;;;4.18;;
7406;SDS011;3745;56.964;24.128;2023-07-31T08:55:10;6.00;;;4.88;;
7406;SDS011;3745;56.964;24.128;2023-07-31T08:57:37;6.45;;;4.18;;
7406;SDS011;3745;56.964;24.128;2023-07-31T09:00:08;7.65;;;4.18;;
7406;SDS011;3745;56.964;24.128;2023-07-31T09:02:41;6.18;;;4.30;;
7406;SDS011;3745;56.964;24.128;2023-07-31T09:05:16;4.40;;;3.90;;
7406;SDS011;3745;56.964;24.128;2023-07-31T09:07:42;5.22;;;4.28;;
7406;SDS011;3745;56.964;24.128;2023-07-31T09:10:12;5.03;;;4.57;;
7406;SDS011;3745;56.964;24.128;2023-07-31T09:12:38;5.28;;;4.80;;
7406;SDS011;3745;56.964;24.128;2023-07-31T09:15:04;4.93;;;4.05;;
7406;SDS011;3745;56.964;24.128;2023-07-31T09:17:35;4.18;;;3.95;;
7406;SDS011;3745;56.964;24.128;2023-07-31T09:20:20;4.75;;;4.30;;
7406;SDS011;3745;56.964;24.128;2023-07-31T09:22:49;6.13;;;4.00;;
7406;SDS011;3745;56.964;24.128;2023-07-31T09:25:18;4.18;;;3.88;;
7406;SDS011;3745;56.964;24.128;2023-07-31T09:27:50;7.00;;;4.00;;
7406;SDS011;3745;56.964;24.128;2023-07-31T09:30:18;4.20;;;3.88;;
7406;SDS011;3745;56.964;24.128;2023-07-31T09:32:45;4.40;;;3.75;;
7406;SDS011;3745;56.964;24.128;2023-07-31T09:35:18;4.40;;;4.00;;
7406;SDS011;3745;56.964;24.128;2023-07-31T09:38:03;6.25;;;4.13;;
7406;SDS011;3745;56.964;24.128;2023-07-31T09:40:43;6.25;;;4.20;;
7406;SDS011;3745;56.964;24.128;2023-07-31T09:43:11;4.80;;;4.40;;
7406;SDS011;3745;56.964;24.128;2023-07-31T09:45:40;8.73;;;4.95;;
7406;SDS011;3745;56.964;24.128;2023-07-31T09:48:08;7.43;;;5.65;;
7406;SDS011;3745;56.964;24.128;2023-07-31T09:50:36;8.88;;;5.88;;
7406;SDS011;3745;56.964;24.128;2023-07-31T09:53:03;8.27;;;6.35;;
7406;SDS011;3745;56.964;24.128;2023-07-31T09:55:29;11.45;;;6.97;;
7406;SDS011;3745;56.964;24.128;2023-07-31T09:57:57;11.77;;;7.43;;
7406;SDS011;3745;56.964;24.128;2023-07-31T10:00:23;11.02;;;7.50;;
7406;SDS011;3745;56.964;24.128;2023-07-31T10:02:52;9.38;;;7.90;;
7406;SDS011;3745;56.964;24.128;2023-07-31T10:05:18;9.63;;;7.47;;
7406;SDS011;3745;56.964;24.128;2023-07-31T10:07:46;10.05;;;7.28;;
7406;SDS011;3745;56.964;24.128;2023-07-31T10:10:16;10.27;;;8.10;;
7406;SDS011;3745;56.964;24.128;2023-07-31T10:12:45;8.10;;;7.05;;
7406;SDS011;3745;56.964;24.128;2023-07-31T10:15:12;10.65;;;7.43;;
7406;SDS011;3745;56.964;24.128;2023-07-31T10:17:39;9.07;;;7.35;;
7406;SDS011;3745;56.964;24.128;2023-07-31T10:20:05;10.43;;;7.13;;
7406;SDS011;3745;56.964;24.128;2023-07-31T10:22:32;9.18;;;6.15;;
7406;SDS011;3745;56.964;24.128;2023-07-31T10:24:59;9.70;;;7.18;;
7406;SDS011;3745;56.964;24.128;2023-07-31T10:27:25;11.60;;;6.82;;
7406;SDS011;3745;56.964;24.128;2023-07-31T10:29:52;12.18;;;5.10;;
7406;SDS011;3745;56.964;24.128;2023-07-31T10:32:20;6.35;;;5.07;;
7406;SDS011;3745;56.964;24.128;2023-07-31T10:34:46;5.55;;;4.60;;
7406;SDS011;3745;56.964;24.128;2023-07-31T10:37:30;5.90;;;4.80;;
7406;SDS011;3745;56.964;24.128;2023-07-31T10:40:03;7.20;;;4.40;;
7406;SDS011;3745;56.964;24.128;2023-07-31T10:42:44;5.82;;;3.92;;
7406;SDS011;3745;56.964;24.128;2023-07-31T10:45:13;9.23;;;4.72;;
7406;SDS011;3745;56.964;24.128;2023-07-31T10:47:43;12.02;;;4.95;;
7406;SDS011;3745;56.964;24.128;2023-07-31T10:50:13;12.55;;;4.78;;
7406;SDS011;3745;56.964;24.128;2023-07-31T10:52:55;10.48;;;4.65;;
7406;SDS011;3745;56.964;24.128;2023-07-31T10:55:47;10.50;;;4.47;;
7406;SDS011;3745;56.964;24.128;2023-07-31T10:58:18;10.80;;;5.30;;
7406;SDS011;3745;56.964;24.128;2023-07-31T11:00:45;8.35;;;5.43;;
7406;SDS011;3745;56.964;24.128;2023-07-31T11:03:12;11.68;;;6.00;;
7406;SDS011;3745;56.964;24.128;2023-07-31T11:08:24;11.10;;;8.53;;
7406;SDS011;3745;56.964;24.128;2023-07-31T11:11:11;9.45;;;6.97;;
7406;SDS011;3745;56.964;24.128;2023-07-31T11:13:49;7.82;;;7.13;;
7406;SDS011;3745;56.964;24.128;2023-07-31T11:16:17;8.43;;;7.35;;
7406;SDS011;3745;56.964;24.128;2023-07-31T11:18:45;9.15;;;5.80;;
7406;SDS011;3745;56.964;24.128;2023-07-31T11:21:16;6.72;;;5.65;;
7406;SDS011;3745;56.964;24.128;2023-07-31T11:23:46;5.78;;;5.22;;
7406;SDS011;3745;56.964;24.128;2023-07-31T11:26:16;7.00;;;5.45;;
7406;SDS011;3745;56.964;24.128;2023-07-31T11:28:43;5.60;;;5.10;;
7406;SDS011;3745;56.964;24.128;2023-07-31T11:31:11;5.45;;;4.88;;
7406;SDS011;3745;56.964;24.128;2023-07-31T11:33:40;4.30;;;3.97;;
7406;SDS011;3745;56.964;24.128;2023-07-31T11:36:06;4.38;;;4.10;;
7406;SDS011;3745;56.964;24.128;2023-07-31T11:38:39;5.00;;;4.60;;
7406;SDS011;3745;56.964;24.128;2023-07-31T11:41:04;6.68;;;4.13;;
7406;SDS011;3745;56.964;24.128;2023-07-31T11:43:30;4.70;;;4.03;;
7406;SDS011;3745;56.964;24.128;2023-07-31T11:45:57;7.10;;;4.43;;
7406;SDS011;3745;56.964;24.128;2023-07-31T11:48:25;5.13;;;4.00;;
7406;SDS011;3745;56.964;24.128;2023-07-31T11:50:53;4.30;;;4.00;;
7406;SDS011;3745;56.964;24.128;2023-07-31T11:53:30;7.68;;;4.65;;
7406;SDS011;3745;56.964;24.128;2023-07-31T11:56:00;8.02;;;4.75;;
7406;SDS011;3745;56.964;24.128;2023-07-31T11:58:30;3.80;;;3.50;;
7406;SDS011;3745;56.964;24.128;2023-07-31T12:00:56;3.88;;;3.67;;
7406;SDS011;3745;56.964;24.128;2023-07-31T12:03:24;5.32;;;3.47;;
7406;SDS011;3745;56.964;24.128;2023-07-31T12:05:50;4.72;;;3.53;;
7406;SDS011;3745;56.964;24.128;2023-07-31T12:08:16;3.20;;;3.00;;
7406;SDS011;3745;56.964;24.128;2023-07-31T12:10:41;3.30;;;3.00;;
7406;SDS011;3745;56.964;24.128;2023-07-31T12:13:09;3.67;;;3.25;;
7406;SDS011;3745;56.964;24.128;2023-07-31T12:15:39;4.97;;;3.42;;
7406;SDS011;3745;56.964;24.128;2023-07-31T12:18:13;5.22;;;3.33;;
7406;SDS011;3745;56.964;24.128;2023-07-31T12:23:18;4.13;;;2.85;;
7406;SDS011;3745;56.964;24.128;2023-07-31T12:25:44;18.63;;;3.92;;
7406;SDS011;3745;56.964;24.128;2023-07-31T12:28:10;4.25;;;3.00;;
7406;SDS011;3745;56.964;24.128;2023-07-31T12:30:39;2.28;;;2.10;;
7406;SDS011;3745;56.964;24.128;2023-07-31T12:33:12;4.50;;;2.50;;
7406;SDS011;3745;56.964;24.128;2023-07-31T12:35:46;4.35;;;2.58;;
7406;SDS011;3745;56.964;24.128;2023-07-31T12:38:13;5.22;;;2.35;;
7406;SDS011;3745;56.964;24.128;2023-07-31T12:40:39;3.03;;;2.17;;
7406;SDS011;3745;56.964;24.128;2023-07-31T12:43:06;4.18;;;2.55;;
7406;SDS011;3745;56.964;24.128;2023-07-31T12:45:33;2.40;;;2.20;;
7406;SDS011;3745;56.964;24.128;2023-07-31T12:47:59;1.85;;;1.75;;
7406;SDS011;3745;56.964;24.128;2023-07-31T12:50:25;1.77;;;1.40;;
7406;SDS011;3745;56.964;24.128;2023-07-31T12:52:52;1.63;;;1.60;;
7406;SDS011;3745;56.964;24.128;2023-07-31T12:55:19;2.03;;;1.77;;
7406;SDS011;3745;56.964;24.128;2023-07-31T12:57:46;1.90;;;1.80;;
7406;SDS011;3745;56.964;24.128;2023-07-31T13:00:12;1.75;;;1.65;;
7406;SDS011;3745;56.964;24.128;2023-07-31T13:02:38;1.77;;;1.67;;
7406;SDS011;3745;56.964;24.128;2023-07-31T13:05:03;1.52;;;1.52;;
7406;SDS011;3745;56.964;24.128;2023-07-31T13:07:29;1.60;;;1.50;;
7406;SDS011;3745;56.964;24.128;2023-07-31T13:09:55;1.58;;;1.48;;
7406;SDS011;3745;56.964;24.128;2023-07-31T13:12:21;1.52;;;1.50;;
7406;SDS011;3745;56.964;24.128;2023-07-31T13:14:50;1.30;;;1.30;;
7406;SDS011;3745;56.964;24.128;2023-07-31T13:17:16;2.55;;;1.40;;
7406;SDS011;3745;56.964;24.128;2023-07-31T13:19:41;1.40;;;1.30;;
7406;SDS011;3745;56.964;24.128;2023-07-31T13:22:07;1.42;;;1.33;;
7406;SDS011;3745;56.964;24.128;2023-07-31T13:24:36;1.85;;;1.27;;
7406;SDS011;3745;56.964;24.128;2023-07-31T13:27:05;1.40;;;1.30;;
7406;SDS011;3745;56.964;24.128;2023-07-31T13:29:30;2.22;;;1.60;;
7406;SDS011;3745;56.964;24.128;2023-07-31T13:31:57;1.35;;;1.30;;
7406;SDS011;3745;56.964;24.128;2023-07-31T13:34:23;1.77;;;1.67;;
7406;SDS011;3745;56.964;24.128;2023-07-31T13:36:48;1.80;;;1.70;;
7406;SDS011;3745;56.964;24.128;2023-07-31T13:39:14;1.55;;;1.55;;
7406;SDS011;3745;56.964;24.128;2023-07-31T13:41:40;1.67;;;1.58;;
7406;SDS011;3745;56.964;24.128;2023-07-31T13:44:06;1.60;;;1.50;;
7406;SDS011;3745;56.964;24.128;2023-07-31T13:46:32;1.75;;;1.65;;
7406;SDS011;3745;56.964;24.128;2023-07-31T13:48:58;1.92;;;1.70;;
7406;SDS011;3745;56.964;24.128;2023-07-31T13:51:25;1.98;;;1.73;;
7406;SDS011;3745;56.964;24.128;2023-07-31T13:53:50;2.92;;;1.70;;
7406;SDS011;3745;56.964;24.128;2023-07-31T13:56:19;1.80;;;1.70;;
7406;SDS011;3745;56.964;24.128;2023-07-31T13:58:44;1.80;;;1.70;;
7406;SDS011;3745;56.964;24.128;2023-07-31T14:01:10;1.30;;;1.30;;
7406;SDS011;3745;56.964;24.128;2023-07-31T14:03:35;1.30;;;1.20;;
7406;SDS011;3745;56.964;24.128;2023-07-31T14:06:01;1.50;;;1.50;;
7406;SDS011;3745;56.964;24.128;2023-07-31T14:08:27;1.60;;;1.50;;
7406;SDS011;3745;56.964;24.128;2023-07-31T14:10:54;1.73;;;1.63;;
7406;SDS011;3745;56.964;24.128;2023-07-31T14:13:20;2.17;;;1.35;;
7406;SDS011;3745;56.964;24.128;2023-07-31T14:15:47;2.47;;;1.40;;
7406;SDS011;3745;56.964;24.128;2023-07-31T14:18:22;1.38;;;1.38;;
7406;SDS011;3745;56.964;24.128;2023-07-31T14:20:51;3.53;;;1.58;;
7406;SDS011;3745;56.964;24.128;2023-07-31T14:23:17;3.08;;;1.35;;
7406;SDS011;3745;56.964;24.128;2023-07-31T14:25:45;1.38;;;1.33;;
7406;SDS011;3745;56.964;24.128;2023-07-31T14:28:16;1.40;;;1.30;;
7406;SDS011;3745;56.964;24.128;2023-07-31T14:30:42;1.35;;;1.35;;
7406;SDS011;3745;56.964;24.128;2023-07-31T14:33:10;1.05;;;1.05;;
7406;SDS011;3745;56.964;24.128;2023-07-31T14:35:35;3.58;;;1.45;;
7406;SDS011;3745;56.964;24.128;2023-07-31T14:38:01;1.30;;;1.20;;
7406;SDS011;3745;56.964;24.128;2023-07-31T14:40:27;1.20;;;1.13;;
7406;SDS011;3745;56.964;24.128;2023-07-31T14:42:58;1.35;;;1.35;;
7406;SDS011;3745;56.964;24.128;2023-07-31T14:45:26;1.70;;;1.38;;
7406;SDS011;3745;56.964;24.128;2023-07-31T14:47:55;1.50;;;1.40;;
7406;SDS011;3745;56.964;24.128;2023-07-31T14:50:21;1.15;;;1.15;;
7406;SDS011;3745;56.964;24.128;2023-07-31T14:52:47;1.35;;;1.25;;
7406;SDS011;3745;56.964;24.128;2023-07-31T14:55:16;2.35;;;1.35;;
7406;SDS011;3745;56.964;24.128;2023-07-31T14:57:41;1.35;;;1.25;;
7406;SDS011;3745;56.964;24.128;2023-07-31T15:00:07;1.35;;;1.30;;
7406;SDS011;3745;56.964;24.128;2023-07-31T15:02:34;1.33;;;1.23;;
7406;SDS011;3745;56.964;24.128;2023-07-31T15:05:00;1.92;;;1.10;;
7406;SDS011;3745;56.964;24.128;2023-07-31T15:07:26;1.15;;;1.10;;